createdAt,value
2022-11-24T00:01:51.199Z,5.50
2022-11-24T00:04:18.953Z,4.65
2022-11-24T00:06:46.772Z,5.45
2022-11-24T00:09:14.702Z,4.90
2022-11-24T00:11:42.429Z,5.17
2022-11-24T00:14:10.644Z,5.10
2022-11-24T00:16:39.417Z,5.25
2022-11-24T00:19:09.567Z,4.60
2022-11-24T00:21:38.630Z,4.78
2022-11-24T00:24:06.941Z,5.03
2022-11-24T00:26:39.569Z,4.82
2022-11-24T00:29:09.372Z,5.30
2022-11-24T00:31:40.371Z,5.10
2022-11-24T00:34:13.515Z,3.83
2022-11-24T00:36:42.544Z,4.00
2022-11-24T00:39:15.439Z,3.85
2022-11-24T00:41:44.737Z,3.90
2022-11-24T00:44:12.415Z,4.63
2022-11-24T00:46:40.259Z,5.07
2022-11-24T00:49:08.593Z,4.50
2022-11-24T00:51:36.419Z,4.32
2022-11-24T00:54:04.223Z,4.53
2022-11-24T00:56:32.110Z,4.10
2022-11-24T00:59:00.063Z,5.10
2022-11-24T01:01:30.928Z,4.83
2022-11-24T01:04:03.225Z,3.65
2022-11-24T01:06:35.645Z,3.55
2022-11-24T01:09:04.354Z,5.85
2022-11-24T01:11:54.403Z,4.57
2022-11-24T01:14:24.522Z,3.87
2022-11-24T01:16:52.668Z,4.30
2022-11-24T01:19:20.963Z,4.78
2022-11-24T01:21:48.909Z,4.80
2022-11-24T01:24:17.104Z,4.18
2022-11-24T01:26:45.126Z,4.90
2022-11-24T01:29:13.299Z,4.50
2022-11-24T01:31:41.180Z,4.15
2022-11-24T01:34:08.994Z,4.45
2022-11-24T01:36:36.919Z,4.90
2022-11-24T01:39:04.682Z,4.53
2022-11-24T01:41:34.365Z,4.82
2022-11-24T01:44:19.402Z,3.85
2022-11-24T01:46:53.589Z,4.32
2022-11-24T01:49:54.898Z,4.50
2022-11-24T01:52:36.982Z,3.93
2022-11-24T01:55:12.412Z,4.22
2022-11-24T01:57:52.194Z,4.20
2022-11-24T02:00:20.149Z,4.60
2022-11-24T02:02:48.844Z,4.10
2022-11-24T02:05:27.393Z,4.60
2022-11-24T02:08:00.761Z,3.65
2022-11-24T02:10:28.897Z,3.55
2022-11-24T02:13:00.032Z,4.45
2022-11-24T02:15:29.032Z,3.75
2022-11-24T02:17:57.076Z,4.07
2022-11-24T02:20:25.681Z,3.45
2022-11-24T02:23:27.930Z,3.42
2022-11-24T02:26:44.557Z,3.42
2022-11-24T02:29:14.030Z,3.38
2022-11-24T02:31:48.698Z,4.20
2022-11-24T02:34:16.446Z,3.75
2022-11-24T02:36:44.614Z,3.28
2022-11-24T02:39:14.792Z,3.35
2022-11-24T02:41:48.272Z,3.28
2022-11-24T02:44:19.247Z,3.07
2022-11-24T02:46:46.969Z,3.88
2022-11-24T02:49:15.611Z,3.83
2022-11-24T02:51:43.283Z,3.20
2022-11-24T02:54:10.995Z,3.50
2022-11-24T02:56:38.661Z,3.10
2022-11-24T02:59:06.331Z,4.13
2022-11-24T03:01:34.040Z,3.03
2022-11-24T03:04:01.781Z,3.38
2022-11-24T03:06:29.496Z,3.50
2022-11-24T03:08:57.296Z,3.60
2022-11-24T03:11:24.972Z,3.78
2022-11-24T03:13:52.662Z,3.17
2022-11-24T03:16:20.448Z,3.50
2022-11-24T03:18:50.396Z,3.75
2022-11-24T03:21:18.264Z,3.70
2022-11-24T03:23:46.088Z,3.35
2022-11-24T03:26:17.910Z,4.40
2022-11-24T03:28:46.067Z,2.63
2022-11-24T03:31:15.071Z,3.42
2022-11-24T03:33:43.004Z,3.63
2022-11-24T03:36:10.896Z,3.25
2022-11-24T03:38:38.603Z,3.55
2022-11-24T03:41:06.307Z,3.30
2022-11-24T03:43:36.795Z,3.13
2022-11-24T03:46:06.885Z,2.67
2022-11-24T03:48:34.598Z,3.28
2022-11-24T03:51:05.377Z,3.33
2022-11-24T03:53:34.559Z,4.00
2022-11-24T03:56:02.887Z,2.42
2022-11-24T03:58:30.796Z,3.20
2022-11-24T04:00:58.770Z,3.58
2022-11-24T04:03:26.994Z,3.53
2022-11-24T04:05:54.698Z,3.60
2022-11-24T04:08:22.419Z,3.42
2022-11-24T04:10:52.929Z,3.80
2022-11-24T04:13:24.213Z,3.30
2022-11-24T04:15:52.114Z,3.92
2022-11-24T04:18:20.665Z,3.80
2022-11-24T04:20:52.150Z,3.95
2022-11-24T04:23:20.092Z,3.23
2022-11-24T04:25:47.766Z,4.03
2022-11-24T04:28:15.466Z,2.88
2022-11-24T04:30:44.837Z,4.03
2022-11-24T04:33:13.262Z,3.10
2022-11-24T04:35:41.135Z,3.77
2022-11-24T04:38:08.884Z,3.58
2022-11-24T04:40:37.394Z,3.42
2022-11-24T04:43:05.071Z,4.40
2022-11-24T04:45:32.720Z,4.43
2022-11-24T04:48:00.407Z,3.33
2022-11-24T04:50:28.049Z,3.58
2022-11-24T04:52:55.757Z,3.40
2022-11-24T04:55:23.535Z,5.50
2022-11-24T04:57:51.186Z,4.97
2022-11-24T05:00:19.472Z,5.03
2022-11-24T05:02:47.174Z,4.43
2022-11-24T05:05:14.813Z,4.38
2022-11-24T05:07:42.491Z,4.40
2022-11-24T05:10:29.093Z,4.53
2022-11-24T05:12:59.293Z,3.60
2022-11-24T05:15:27.340Z,4.43
2022-11-24T05:17:55.365Z,4.75
2022-11-24T05:20:23.792Z,4.03
2022-11-24T05:22:52.025Z,3.08
2022-11-24T05:25:19.798Z,3.17
2022-11-24T05:27:47.460Z,2.55
2022-11-24T05:30:15.273Z,2.13
2022-11-24T05:32:43.500Z,2.50
2022-11-24T05:35:11.791Z,2.40
2022-11-24T05:37:39.524Z,2.43
2022-11-24T05:40:08.098Z,1.98
2022-11-24T05:42:46.623Z,2.05
2022-11-24T05:45:19.291Z,2.42
2022-11-24T05:47:47.699Z,1.85
2022-11-24T05:50:18.335Z,1.93
2022-11-24T05:52:46.420Z,1.67
2022-11-24T05:55:15.433Z,1.35
2022-11-24T05:57:43.360Z,1.67
2022-11-24T06:00:11.843Z,1.50
2022-11-24T06:02:42.655Z,1.30
2022-11-24T06:05:10.424Z,1.65
2022-11-24T06:07:38.111Z,1.33
2022-11-24T06:10:06.069Z,1.75
2022-11-24T06:12:33.761Z,1.70
2022-11-24T06:15:01.513Z,1.70
2022-11-24T06:17:29.749Z,1.60
2022-11-24T06:19:57.475Z,1.75
2022-11-24T06:22:25.139Z,2.00
2022-11-24T06:24:52.822Z,1.70
2022-11-24T06:27:20.478Z,2.47
2022-11-24T06:29:48.479Z,2.05
2022-11-24T06:32:16.576Z,2.40
2022-11-24T06:34:44.662Z,2.28
2022-11-24T06:37:12.302Z,2.40
2022-11-24T06:39:40.022Z,2.33
2022-11-24T06:42:07.727Z,2.88
2022-11-24T06:44:35.634Z,2.42
2022-11-24T06:47:03.482Z,3.50
2022-11-24T06:49:31.113Z,3.60
2022-11-24T06:51:58.802Z,3.27
2022-11-24T06:54:26.455Z,3.15
2022-11-24T06:57:00.430Z,2.85
2022-11-24T06:59:28.259Z,3.78
2022-11-24T07:01:55.953Z,4.45
2022-11-24T07:04:23.726Z,4.40
2022-11-24T07:06:51.411Z,4.47
2022-11-24T07:09:19.068Z,5.38
2022-11-24T07:11:46.806Z,6.03
2022-11-24T07:14:14.574Z,6.00
2022-11-24T07:16:42.589Z,6.97
2022-11-24T07:19:10.938Z,7.50
2022-11-24T07:21:38.646Z,7.43
2022-11-24T07:24:06.781Z,7.82
2022-11-24T07:26:37.317Z,8.52
2022-11-24T07:29:06.085Z,9.27
2022-11-24T07:31:33.834Z,9.25
2022-11-24T07:34:01.620Z,8.85
2022-11-24T07:36:29.393Z,10.15
2022-11-24T07:38:57.137Z,9.85
2022-11-24T07:41:24.816Z,9.83
2022-11-24T07:43:53.044Z,9.93
2022-11-24T07:46:20.981Z,9.60
2022-11-24T07:48:48.740Z,9.20
2022-11-24T07:51:16.666Z,8.90
2022-11-24T07:53:45.784Z,9.80
2022-11-24T07:56:13.534Z,8.63
2022-11-24T07:58:41.234Z,9.45
2022-11-24T08:01:11.150Z,9.07
2022-11-24T08:03:39.123Z,7.80
2022-11-24T08:06:24.044Z,7.83
2022-11-24T08:08:54.446Z,8.88
2022-11-24T08:11:22.430Z,8.80
2022-11-24T08:13:50.317Z,8.02
2022-11-24T08:16:20.066Z,8.38
2022-11-24T08:18:54.111Z,8.30
2022-11-24T08:21:23.329Z,8.70
2022-11-24T08:23:55.965Z,8.25
2022-11-24T08:26:25.006Z,8.63
2022-11-24T08:28:58.753Z,8.77
2022-11-24T08:31:33.418Z,8.30
2022-11-24T08:34:03.549Z,8.98
2022-11-24T08:36:31.937Z,8.75
2022-11-24T08:39:01.386Z,8.15
2022-11-24T08:41:30.613Z,8.65
2022-11-24T08:43:58.404Z,8.23
2022-11-24T08:46:26.244Z,7.82
2022-11-24T08:48:55.515Z,7.80
2022-11-24T08:51:26.428Z,7.72
2022-11-24T08:54:00.076Z,7.20
2022-11-24T08:56:31.108Z,8.30
2022-11-24T08:58:59.336Z,7.60
2022-11-24T09:01:27.922Z,7.28
2022-11-24T09:03:56.147Z,7.38
2022-11-24T09:06:30.770Z,6.93
2022-11-24T09:08:59.892Z,6.70
2022-11-24T09:11:28.080Z,7.43
2022-11-24T09:13:56.138Z,6.53
2022-11-24T09:16:29.292Z,6.55
2022-11-24T09:19:03.540Z,7.20
2022-11-24T09:21:34.221Z,5.93
2022-11-24T09:24:02.085Z,5.97
2022-11-24T09:26:33.932Z,6.03
2022-11-24T09:29:05.574Z,5.90
2022-11-24T09:31:36.191Z,5.13
2022-11-24T09:34:15.406Z,5.60
2022-11-24T09:36:43.892Z,6.15
2022-11-24T09:39:12.089Z,5.55
2022-11-24T09:42:28.099Z,5.80
2022-11-24T09:45:15.271Z,4.97
2022-11-24T09:47:58.363Z,4.80
2022-11-24T09:50:34.038Z,4.88
2022-11-24T09:53:36.157Z,4.13
2022-11-24T09:56:22.122Z,3.20
2022-11-24T09:59:07.296Z,3.95
2022-11-24T10:01:42.362Z,3.63
2022-11-24T10:04:25.759Z,3.97
2022-11-24T10:07:30.007Z,2.83
2022-11-24T10:10:24.280Z,4.10
2022-11-24T10:13:22.030Z,3.53
2022-11-24T10:16:23.387Z,3.67
2022-11-24T10:19:21.858Z,3.25
2022-11-24T10:22:43.918Z,2.90
2022-11-24T10:25:30.818Z,3.22
2022-11-24T10:28:10.683Z,3.60
2022-11-24T10:30:38.769Z,3.57
2022-11-24T10:33:24.278Z,3.67
2022-11-24T10:36:13.308Z,2.88
2022-11-24T10:39:01.117Z,3.20
2022-11-24T10:41:51.773Z,3.42
2022-11-24T10:44:19.505Z,3.20
2022-11-24T10:46:47.192Z,3.72
2022-11-24T10:49:24.182Z,3.55
2022-11-24T10:52:07.042Z,2.75
2022-11-24T10:54:36.035Z,3.00
2022-11-24T10:57:03.866Z,3.67
2022-11-24T10:59:37.570Z,3.25
2022-11-24T11:02:36.323Z,3.83
2022-11-24T11:05:43.366Z,3.78
2022-11-24T11:08:15.295Z,3.85
2022-11-24T11:10:45.507Z,3.97
2022-11-24T11:13:30.089Z,3.67
2022-11-24T11:15:59.104Z,2.83
2022-11-24T11:18:33.288Z,3.33
2022-11-24T11:21:02.817Z,3.47
2022-11-24T11:23:36.546Z,3.63
2022-11-24T11:26:27.520Z,3.80
2022-11-24T11:31:15.449Z,3.65
2022-11-24T11:35:03.493Z,3.60
2022-11-24T11:37:33.885Z,3.83
2022-11-24T11:40:02.072Z,3.50
2022-11-24T11:43:04.603Z,3.10
2022-11-24T11:45:37.268Z,3.97
2022-11-24T11:48:10.843Z,5.03
2022-11-24T11:51:22.756Z,3.87
2022-11-24T11:54:20.547Z,4.40
2022-11-24T11:57:15.915Z,4.10
2022-11-24T11:59:49.055Z,4.53
2022-11-24T12:02:28.219Z,3.63
2022-11-24T12:05:49.520Z,3.97
2022-11-24T12:09:03.200Z,4.22
2022-11-24T12:11:45.930Z,3.67
2022-11-24T12:14:26.607Z,3.58
2022-11-24T12:17:08.946Z,3.35
2022-11-24T12:20:00.351Z,4.10
2022-11-24T12:23:01.287Z,3.75
2022-11-24T12:26:10.984Z,3.85
2022-11-24T12:29:23.215Z,4.03
2022-11-24T12:32:05.557Z,3.55
2022-11-24T12:35:05.902Z,3.40
2022-11-24T12:38:15.175Z,3.33
2022-11-24T12:44:17.742Z,4.32
2022-11-24T12:47:15.748Z,4.45
2022-11-24T12:50:09.988Z,4.03
2022-11-24T12:53:22.009Z,4.10
2022-11-24T12:55:49.971Z,3.83
2022-11-24T12:58:31.694Z,4.40
2022-11-24T13:01:42.612Z,3.92
2022-11-24T13:04:28.562Z,3.53
2022-11-24T13:07:11.987Z,4.57
2022-11-24T13:10:54.130Z,3.90
2022-11-24T13:13:18.069Z,6.40
2022-11-24T13:16:34.426Z,6.25
2022-11-24T13:18:53.497Z,3.70
2022-11-24T13:21:45.292Z,5.90
2022-11-24T13:24:19.905Z,3.58
2022-11-24T13:26:52.264Z,3.45
2022-11-24T13:29:31.791Z,3.33
2022-11-24T13:32:05.190Z,5.27
2022-11-24T13:34:49.747Z,4.00
2022-11-24T13:37:31.575Z,3.85
2022-11-24T13:40:23.214Z,3.58
2022-11-24T13:43:02.806Z,3.83
2022-11-24T13:45:39.543Z,3.50
2022-11-24T13:48:19.313Z,3.65
2022-11-24T13:50:49.976Z,4.15
2022-11-24T13:53:45.166Z,3.80
2022-11-24T13:56:12.781Z,3.42
2022-11-24T13:58:50.167Z,4.43
2022-11-24T14:01:33.329Z,3.50
2022-11-24T14:04:30.906Z,3.78
2022-11-24T14:07:08.222Z,3.45
2022-11-24T14:09:49.616Z,3.55
2022-11-24T14:12:26.770Z,3.67
2022-11-24T14:15:26.141Z,3.80
2022-11-24T14:17:53.863Z,4.15
2022-11-24T14:20:27.391Z,3.90
2022-11-24T14:22:55.147Z,3.95
2022-11-24T14:25:32.487Z,3.90
2022-11-24T14:28:00.930Z,3.30
2022-11-24T14:30:28.718Z,3.80
2022-11-24T14:33:03.664Z,5.72
2022-11-24T14:35:34.799Z,3.90
2022-11-24T14:38:05.425Z,3.67
2022-11-24T14:40:42.962Z,13.95
2022-11-24T14:43:31.746Z,7.88
2022-11-24T14:46:09.376Z,4.35
2022-11-24T14:48:45.193Z,4.53
2022-11-24T14:51:23.044Z,3.93
2022-11-24T14:54:13.920Z,3.53
2022-11-24T14:56:42.098Z,3.20
2022-11-24T14:59:25.363Z,4.18
2022-11-24T15:01:53.510Z,3.40
2022-11-24T15:04:54.249Z,3.50
2022-11-24T15:07:28.877Z,3.63
2022-11-24T15:09:59.976Z,3.40
2022-11-24T15:12:37.885Z,3.85
2022-11-24T15:15:20.245Z,3.70
2022-11-24T15:17:54.112Z,11.60
2022-11-24T15:20:30.247Z,7.85
2022-11-24T15:23:30.991Z,5.60
2022-11-24T15:26:18.574Z,3.63
2022-11-24T15:28:47.254Z,3.38
2022-11-24T15:31:15.277Z,3.67
2022-11-24T15:33:43.006Z,3.63
2022-11-24T15:36:13.862Z,3.95
2022-11-24T15:38:41.522Z,3.92
2022-11-24T15:41:32.087Z,3.80
2022-11-24T15:44:00.122Z,4.80
2022-11-24T15:46:30.000Z,4.75
2022-11-24T15:48:57.992Z,14.85
2022-11-24T15:51:27.271Z,24.15
2022-11-24T15:54:00.794Z,11.23
2022-11-24T15:56:33.070Z,8.00
2022-11-24T15:59:01.601Z,7.50
2022-11-24T16:01:32.815Z,6.13
2022-11-24T16:04:03.743Z,6.28
2022-11-24T16:06:31.573Z,6.78
2022-11-24T16:09:02.346Z,5.13
2022-11-24T16:11:30.033Z,4.90
2022-11-24T16:13:57.698Z,4.43
2022-11-24T16:16:25.692Z,3.95
2022-11-24T16:18:53.436Z,4.13
2022-11-24T16:21:21.211Z,3.60
2022-11-24T16:23:48.934Z,4.28
2022-11-24T16:26:16.720Z,4.30
2022-11-24T16:28:45.604Z,5.03
2022-11-24T16:31:15.840Z,4.57
2022-11-24T16:33:46.153Z,4.60
2022-11-24T16:36:14.761Z,5.25
2022-11-24T16:38:42.464Z,4.20
2022-11-24T16:41:10.654Z,4.95
2022-11-24T16:43:38.879Z,4.93
2022-11-24T16:46:16.901Z,4.93
2022-11-24T16:48:46.522Z,4.57
2022-11-24T16:51:15.774Z,4.72
2022-11-24T16:53:44.010Z,4.10
2022-11-24T16:56:12.238Z,4.82
2022-11-24T16:58:41.650Z,4.70
2022-11-24T17:01:13.005Z,5.18
2022-11-24T17:03:41.226Z,4.72
2022-11-24T17:06:18.541Z,4.70
2022-11-24T17:08:47.749Z,4.25
2022-11-24T17:11:20.523Z,6.10
2022-11-24T17:13:49.213Z,4.80
2022-11-24T17:16:23.145Z,7.25
2022-11-24T17:18:51.219Z,6.07
2022-11-24T17:21:22.071Z,4.70
2022-11-24T17:23:58.888Z,5.33
2022-11-24T17:26:27.578Z,4.10
2022-11-24T17:28:56.170Z,3.92
2022-11-24T17:31:31.831Z,4.60
2022-11-24T17:34:01.263Z,5.03
2022-11-24T17:36:32.012Z,4.73
2022-11-24T17:39:05.483Z,5.38
2022-11-24T17:41:33.987Z,8.18
2022-11-24T17:44:01.729Z,12.52
2022-11-24T17:46:30.784Z,6.55
2022-11-24T17:48:58.456Z,4.87
2022-11-24T17:51:27.252Z,5.30
2022-11-24T17:53:57.369Z,4.68
2022-11-24T17:56:27.693Z,5.22
2022-11-24T17:58:58.468Z,5.05
2022-11-24T18:01:28.483Z,5.67
2022-11-24T18:03:56.562Z,4.38
2022-11-24T18:06:25.373Z,6.43
2022-11-24T18:08:55.414Z,5.63
2022-11-24T18:11:31.712Z,5.55
2022-11-24T18:14:03.438Z,4.33
2022-11-24T18:16:34.433Z,6.07
2022-11-24T18:19:08.895Z,4.47
2022-11-24T18:21:39.977Z,4.60
2022-11-24T18:24:09.870Z,5.55
2022-11-24T18:26:39.403Z,24.13
2022-11-24T18:29:07.814Z,8.00
2022-11-24T18:31:36.296Z,5.38
2022-11-24T18:34:06.213Z,5.63
2022-11-24T18:36:34.772Z,4.72
2022-11-24T18:39:04.685Z,5.43
2022-11-24T18:41:32.655Z,4.78
2022-11-24T18:44:07.633Z,4.03
2022-11-24T18:46:35.667Z,5.28
2022-11-24T18:49:03.850Z,4.97
2022-11-24T18:51:31.582Z,6.13
2022-11-24T18:53:59.302Z,5.20
2022-11-24T18:56:27.381Z,4.40
2022-11-24T18:58:56.979Z,3.85
2022-11-24T19:01:27.848Z,6.78
2022-11-24T19:03:58.662Z,5.50
2022-11-24T19:06:31.996Z,5.28
2022-11-24T19:09:03.302Z,6.35
2022-11-24T19:11:36.005Z,6.18
2022-11-24T19:14:07.818Z,6.28
2022-11-24T19:16:36.106Z,7.10
2022-11-24T19:19:05.348Z,5.38
2022-11-24T19:21:38.340Z,7.35
2022-11-24T19:24:09.775Z,9.85
2022-11-24T19:26:38.339Z,4.82
2022-11-24T19:29:07.576Z,6.00
2022-11-24T19:31:38.178Z,5.03
2022-11-24T19:34:07.872Z,5.88
2022-11-24T19:36:36.088Z,5.07
2022-11-24T19:39:05.105Z,4.82
2022-11-24T19:41:34.189Z,5.77
2022-11-24T19:44:01.849Z,4.40
2022-11-24T19:46:30.098Z,4.95
2022-11-24T19:49:00.976Z,4.43
2022-11-24T19:51:32.518Z,4.28
2022-11-24T19:54:01.387Z,5.23
2022-11-24T19:56:32.167Z,4.38
2022-11-24T19:58:59.879Z,4.82
2022-11-24T20:01:30.505Z,4.35
2022-11-24T20:04:17.934Z,4.47
2022-11-24T20:06:47.533Z,3.70
2022-11-24T20:09:17.809Z,4.70
2022-11-24T20:11:45.947Z,4.15
2022-11-24T20:14:15.234Z,4.05
2022-11-24T20:16:45.330Z,3.53
2022-11-24T20:19:15.930Z,4.00
2022-11-24T20:21:47.697Z,4.63
2022-11-24T20:24:23.231Z,4.45
2022-11-24T20:26:58.020Z,4.53
2022-11-24T20:29:26.110Z,4.28
2022-11-24T20:31:56.198Z,4.47
2022-11-24T20:34:24.584Z,5.30
2022-11-24T20:36:53.034Z,3.70
2022-11-24T20:39:28.064Z,3.92
2022-11-24T20:41:56.455Z,4.65
2022-11-24T20:44:26.536Z,4.63
2022-11-24T20:46:57.254Z,3.42
2022-11-24T20:49:26.248Z,4.05
2022-11-24T20:51:57.252Z,4.28
2022-11-24T20:54:25.003Z,5.65
2022-11-24T20:56:52.653Z,4.03
2022-11-24T20:59:23.371Z,4.80
2022-11-24T21:01:54.980Z,4.28
2022-11-24T21:04:26.665Z,5.28
2022-11-24T21:06:54.709Z,4.35
2022-11-24T21:09:22.473Z,4.47
2022-11-24T21:11:50.327Z,4.80
2022-11-24T21:14:17.970Z,4.22
2022-11-24T21:16:45.672Z,3.88
2022-11-24T21:19:18.139Z,4.32
2022-11-24T21:21:47.452Z,4.70
2022-11-24T21:24:18.704Z,5.63
2022-11-24T21:26:47.829Z,10.18
2022-11-24T21:29:22.526Z,5.60
2022-11-24T21:31:50.355Z,5.00
2022-11-24T21:34:19.321Z,9.10
2022-11-24T21:36:47.323Z,4.95
2022-11-24T21:39:15.903Z,9.27
2022-11-24T21:41:43.914Z,5.70
2022-11-24T21:44:24.402Z,4.53
2022-11-24T21:46:55.910Z,3.73
2022-11-24T21:49:23.978Z,4.88
2022-11-24T21:51:55.467Z,4.43
2022-11-24T21:54:23.607Z,5.03
2022-11-24T21:56:51.416Z,4.43
2022-11-24T21:59:21.806Z,4.73
2022-11-24T22:01:49.472Z,4.22
2022-11-24T22:04:17.234Z,3.97
2022-11-24T22:06:45.054Z,4.50
2022-11-24T22:09:17.764Z,5.20
2022-11-24T22:11:49.050Z,4.77
2022-11-24T22:14:16.808Z,3.92
2022-11-24T22:16:44.714Z,3.55
2022-11-24T22:19:12.501Z,4.25
2022-11-24T22:21:40.215Z,3.83
2022-11-24T22:24:08.477Z,3.90
2022-11-24T22:26:36.162Z,3.92
2022-11-24T22:29:04.043Z,3.97
2022-11-24T22:31:33.191Z,4.70
2022-11-24T22:34:02.166Z,4.43
2022-11-24T22:36:30.954Z,4.10
2022-11-24T22:39:04.406Z,4.55
2022-11-24T22:41:34.963Z,4.05
2022-11-24T22:44:03.309Z,3.40
2022-11-24T22:46:33.491Z,4.53
2022-11-24T22:49:02.051Z,4.57
2022-11-24T22:51:33.605Z,3.72
2022-11-24T22:54:04.119Z,3.92
2022-11-24T22:56:33.508Z,4.07
2022-11-24T22:59:02.089Z,4.20
2022-11-24T23:01:31.800Z,4.17
2022-11-24T23:04:00.252Z,3.83
2022-11-24T23:06:30.919Z,3.60
2022-11-24T23:09:00.559Z,3.65
2022-11-24T23:11:37.811Z,4.22
2022-11-24T23:14:15.247Z,4.40
2022-11-24T23:16:43.571Z,4.47
2022-11-24T23:19:11.375Z,4.15
2022-11-24T23:21:39.327Z,4.10
2022-11-24T23:24:09.825Z,3.90
2022-11-24T23:26:40.510Z,3.33
2022-11-24T23:29:09.558Z,4.38
2022-11-24T23:31:39.967Z,3.42
2022-11-24T23:34:07.991Z,4.22
2022-11-24T23:36:35.654Z,3.90
2022-11-24T23:39:06.399Z,3.70
2022-11-24T23:41:34.215Z,4.03
2022-11-24T23:44:01.935Z,3.40
2022-11-24T23:46:30.893Z,3.90
2022-11-24T23:48:58.631Z,4.18
2022-11-24T23:51:32.746Z,4.03
2022-11-24T23:54:01.020Z,4.30
2022-11-24T23:56:32.541Z,4.10
2022-11-24T23:59:03.039Z,4.30
